Terminal Aerodrome Forecast
Issued by NWS Honolulu, HI

Home | Current Version | Previous Version | Text Only | Print | Product List | Glossary On
Versions: 1 2 3 4 5 6 7 8 9 10 11 12 13 14 15 16 17 18 19 20 21 22 23 24 25 26
000
FTPA31 PHFO 030258 AAA
TAFHNL
TAF AMD
PHNL 030258Z 0303/0406 15010KT P6SM VCSH FEW025 SCT045 BKN200
     FM030400 08008KT P6SM VCSH FEW025 SCT045 BKN200
     FM030800 34005KT P6SM VCSH SCT025 SCT045
     FM032100 18010KT P6SM VCSH SCT025 BKN045
     FM040500 02005KT P6SM SCT025 SCT045=

USA.gov is the U.S. government's official web portal to all federal, state and local government web resources and services.